sensor_id;sensor_type;location;lat;lon;timestamp;pressure;altitude;pressure_sealevel;temperature;humidity
51359;BME280;37448;51.588;7.248;2023-01-29T00:01:38;102412.03;;;-4.55;86.89
51359;BME280;37448;51.588;7.248;2023-01-29T00:03:38;102416.91;;;-4.58;86.67
51359;BME280;37448;51.588;7.248;2023-01-29T00:05:38;102409.06;;;-4.62;86.44
51359;BME280;37448;51.588;7.248;2023-01-29T00:07:39;102411.59;;;-4.62;86.51
51359;BME280;37448;51.588;7.248;2023-01-29T00:09:39;102406.50;;;-4.62;86.92
51359;BME280;37448;51.588;7.248;2023-01-29T00:11:39;102408.84;;;-4.65;86.77
51359;BME280;37448;51.588;7.248;2023-01-29T00:13:40;102400.41;;;-4.64;86.63
51359;BME280;37448;51.588;7.248;2023-01-29T00:15:40;102400.22;;;-4.67;86.87
51359;BME280;37448;51.588;7.248;2023-01-29T00:17:41;102402.75;;;-4.67;86.70
51359;BME280;37448;51.588;7.248;2023-01-29T00:19:41;102398.31;;;-4.69;86.88
51359;BME280;37448;51.588;7.248;2023-01-29T00:21:41;102394.91;;;-4.70;87.08
51359;BME280;37448;51.588;7.248;2023-01-29T00:23:42;102393.88;;;-4.72;86.57
51359;BME280;37448;51.588;7.248;2023-01-29T00:25:43;102387.13;;;-4.71;86.37
51359;BME280;37448;51.588;7.248;2023-01-29T00:27:44;102388.56;;;-4.75;86.83
51359;BME280;37448;51.588;7.248;2023-01-29T00:29:44;102393.66;;;-4.75;86.39
51359;BME280;37448;51.588;7.248;2023-01-29T00:32:04;102390.91;;;-4.78;86.52
51359;BME280;37448;51.588;7.248;2023-01-29T00:34:05;102391.03;;;-4.77;86.66
51359;BME280;37448;51.588;7.248;2023-01-29T00:36:08;102398.56;;;-4.78;86.73
51359;BME280;37448;51.588;7.248;2023-01-29T00:38:09;102389.25;;;-4.78;86.77
51359;BME280;37448;51.588;7.248;2023-01-29T00:40:10;102392.69;;;-4.77;87.12
51359;BME280;37448;51.588;7.248;2023-01-29T00:42:10;102394.16;;;-4.81;86.24
51359;BME280;37448;51.588;7.248;2023-01-29T00:44:29;102383.84;;;-4.82;86.90
51359;BME280;37448;51.588;7.248;2023-01-29T00:46:48;102379.41;;;-4.85;86.78
51359;BME280;37448;51.588;7.248;2023-01-29T00:48:49;102388.72;;;-4.85;86.39
51359;BME280;37448;51.588;7.248;2023-01-29T00:50:49;102381.84;;;-4.86;86.63
51359;BME280;37448;51.588;7.248;2023-01-29T00:52:50;102384.41;;;-4.86;86.59
51359;BME280;37448;51.588;7.248;2023-01-29T00:54:53;102385.97;;;-4.88;86.31
51359;BME280;37448;51.588;7.248;2023-01-29T00:56:54;102394.59;;;-4.86;86.88
51359;BME280;37448;51.588;7.248;2023-01-29T00:58:55;102401.47;;;-4.85;87.22
51359;BME280;37448;51.588;7.248;2023-01-29T01:00:56;102404.88;;;-4.85;86.80
51359;BME280;37448;51.588;7.248;2023-01-29T01:02:58;102406.78;;;-4.82;87.11
51359;BME280;37448;51.588;7.248;2023-01-29T01:05:09;102401.47;;;-4.85;86.98
51359;BME280;37448;51.588;7.248;2023-01-29T01:07:13;102400.69;;;-4.84;86.52
51359;BME280;37448;51.588;7.248;2023-01-29T01:09:13;102392.91;;;-4.86;86.67
51359;BME280;37448;51.588;7.248;2023-01-29T01:11:32;102393.03;;;-4.84;86.45
51359;BME280;37448;51.588;7.248;2023-01-29T01:13:33;102397.25;;;-4.85;86.79
51359;BME280;37448;51.588;7.248;2023-01-29T01:15:36;102394.81;;;-4.83;86.56
51359;BME280;37448;51.588;7.248;2023-01-29T01:17:36;102390.59;;;-4.83;86.89
51359;BME280;37448;51.588;7.248;2023-01-29T01:19:37;102382.84;;;-4.84;86.79
51359;BME280;37448;51.588;7.248;2023-01-29T01:21:37;102373.44;;;-4.85;86.70
51359;BME280;37448;51.588;7.248;2023-01-29T01:23:38;102369.19;;;-4.85;86.86
51359;BME280;37448;51.588;7.248;2023-01-29T01:25:38;102353.69;;;-4.88;86.37
51359;BME280;37448;51.588;7.248;2023-01-29T01:27:38;102351.84;;;-4.91;86.52
51359;BME280;37448;51.588;7.248;2023-01-29T01:29:40;102350.06;;;-4.92;86.83
51359;BME280;37448;51.588;7.248;2023-01-29T01:31:40;102354.47;;;-4.89;87.12
51359;BME280;37448;51.588;7.248;2023-01-29T01:33:41;102355.38;;;-4.88;87.18
51359;BME280;37448;51.588;7.248;2023-01-29T01:35:41;102350.94;;;-4.91;87.17
51359;BME280;37448;51.588;7.248;2023-01-29T01:37:42;102348.31;;;-4.93;87.39
51359;BME280;37448;51.588;7.248;2023-01-29T01:39:42;102345.50;;;-4.96;86.66
51359;BME280;37448;51.588;7.248;2023-01-29T01:41:48;102353.16;;;-4.96;87.04
51359;BME280;37448;51.588;7.248;2023-01-29T01:43:58;102349.09;;;-4.94;87.11
51359;BME280;37448;51.588;7.248;2023-01-29T01:45:59;102352.81;;;-4.88;87.51
51359;BME280;37448;51.588;7.248;2023-01-29T01:48:10;102346.81;;;-4.89;87.53
51359;BME280;37448;51.588;7.248;2023-01-29T01:50:15;102353.81;;;-4.86;87.45
51359;BME280;37448;51.588;7.248;2023-01-29T01:52:18;102354.59;;;-4.87;87.34
51359;BME280;37448;51.588;7.248;2023-01-29T01:54:23;102364.78;;;-4.87;86.93
51359;BME280;37448;51.588;7.248;2023-01-29T01:56:27;102363.03;;;-4.88;87.13
51359;BME280;37448;51.588;7.248;2023-01-29T01:58:50;102351.84;;;-4.91;87.15
51359;BME280;37448;51.588;7.248;2023-01-29T02:00:53;102345.06;;;-4.90;87.42
51359;BME280;37448;51.588;7.248;2023-01-29T02:02:54;102349.28;;;-4.91;87.05
51359;BME280;37448;51.588;7.248;2023-01-29T02:05:13;102355.16;;;-4.92;86.92
51359;BME280;37448;51.588;7.248;2023-01-29T02:07:32;102368.91;;;-4.90;87.26
51359;BME280;37448;51.588;7.248;2023-01-29T02:10:12;102354.69;;;-4.86;87.86
51359;BME280;37448;51.588;7.248;2023-01-29T02:12:15;102353.59;;;-4.90;87.49
51359;BME280;37448;51.588;7.248;2023-01-29T02:14:16;102357.34;;;-4.84;88.26
51359;BME280;37448;51.588;7.248;2023-01-29T02:16:16;102362.91;;;-4.90;86.88
51359;BME280;37448;51.588;7.248;2023-01-29T02:18:19;102362.03;;;-4.91;87.28
51359;BME280;37448;51.588;7.248;2023-01-29T02:20:23;102355.25;;;-4.90;87.03
51359;BME280;37448;51.588;7.248;2023-01-29T02:27:14;102364.47;;;-4.92;86.60
51359;BME280;37448;51.588;7.248;2023-01-29T02:32:22;102376.44;;;-4.91;87.47
51359;BME280;37448;51.588;7.248;2023-01-29T02:34:29;102378.88;;;-4.93;87.12
51359;BME280;37448;51.588;7.248;2023-01-29T02:37:02;102376.09;;;-4.96;86.72
51359;BME280;37448;51.588;7.248;2023-01-29T02:39:30;102378.44;;;-4.99;86.63
51359;BME280;37448;51.588;7.248;2023-01-29T02:46:12;102361.38;;;-5.00;86.95
51359;BME280;37448;51.588;7.248;2023-01-29T02:48:18;102357.84;;;-5.02;87.07
51359;BME280;37448;51.588;7.248;2023-01-29T02:50:25;102353.63;;;-5.01;87.04
51359;BME280;37448;51.588;7.248;2023-01-29T02:52:35;102360.38;;;-5.02;86.77
51359;BME280;37448;51.588;7.248;2023-01-29T02:56:50;102362.28;;;-4.99;86.83
51359;BME280;37448;51.588;7.248;2023-01-29T02:59:00;102372.69;;;-4.96;87.51
51359;BME280;37448;51.588;7.248;2023-01-29T03:01:08;102367.78;;;-4.93;88.01
51359;BME280;37448;51.588;7.248;2023-01-29T03:03:20;102368.44;;;-4.96;87.50
51359;BME280;37448;51.588;7.248;2023-01-29T03:05:30;102372.88;;;-4.93;87.54
51359;BME280;37448;51.588;7.248;2023-01-29T03:07:37;102374.56;;;-4.94;87.23
51359;BME280;37448;51.588;7.248;2023-01-29T03:09:52;102359.16;;;-4.95;87.04
51359;BME280;37448;51.588;7.248;2023-01-29T03:11:58;102362.47;;;-4.96;87.34
51359;BME280;37448;51.588;7.248;2023-01-29T03:14:05;102357.38;;;-4.96;87.66
51359;BME280;37448;51.588;7.248;2023-01-29T03:16:19;102358.94;;;-4.98;87.12
51359;BME280;37448;51.588;7.248;2023-01-29T03:18:23;102360.81;;;-4.96;87.61
51359;BME280;37448;51.588;7.248;2023-01-29T03:20:32;102369.34;;;-4.95;87.61
51359;BME280;37448;51.588;7.248;2023-01-29T03:22:38;102371.13;;;-4.94;87.52
51359;BME280;37448;51.588;7.248;2023-01-29T03:24:49;102371.78;;;-4.97;87.25
51359;BME280;37448;51.588;7.248;2023-01-29T03:27:13;102380.22;;;-4.98;87.29
51359;BME280;37448;51.588;7.248;2023-01-29T03:29:37;102383.75;;;-4.96;87.67
51359;BME280;37448;51.588;7.248;2023-01-29T03:32:05;102385.31;;;-4.98;87.13
51359;BME280;37448;51.588;7.248;2023-01-29T03:34:19;102384.66;;;-4.95;87.42
51359;BME280;37448;51.588;7.248;2023-01-29T03:36:35;102386.75;;;-4.90;87.84
51359;BME280;37448;51.588;7.248;2023-01-29T03:38:44;102374.22;;;-4.86;88.12
51359;BME280;37448;51.588;7.248;2023-01-29T03:40:50;102370.88;;;-4.85;87.75
51359;BME280;37448;51.588;7.248;2023-01-29T03:43:10;102369.31;;;-4.83;87.84
51359;BME280;37448;51.588;7.248;2023-01-29T03:45:20;102373.63;;;-4.82;88.02
51359;BME280;37448;51.588;7.248;2023-01-29T03:47:44;102373.84;;;-4.79;88.09
51359;BME280;37448;51.588;7.248;2023-01-29T03:50:47;102372.59;;;-4.72;88.21
51359;BME280;37448;51.588;7.248;2023-01-29T04:01:17;102365.41;;;-4.41;88.90
51359;BME280;37448;51.588;7.248;2023-01-29T04:03:23;102357.16;;;-4.37;89.36
51359;BME280;37448;51.588;7.248;2023-01-29T04:05:30;102357.56;;;-4.30;89.41
51359;BME280;37448;51.588;7.248;2023-01-29T04:07:51;102352.84;;;-4.24;89.42
51359;BME280;37448;51.588;7.248;2023-01-29T04:09:57;102351.53;;;-4.19;88.90
51359;BME280;37448;51.588;7.248;2023-01-29T04:12:10;102350.16;;;-4.14;89.30
51359;BME280;37448;51.588;7.248;2023-01-29T04:14:16;102339.47;;;-4.08;89.33
51359;BME280;37448;51.588;7.248;2023-01-29T04:16:23;102330.44;;;-4.03;89.36
51359;BME280;37448;51.588;7.248;2023-01-29T04:18:36;102328.09;;;-4.00;89.74
51359;BME280;37448;51.588;7.248;2023-01-29T04:20:40;102329.19;;;-3.96;89.70
51359;BME280;37448;51.588;7.248;2023-01-29T04:22:44;102322.50;;;-3.94;89.68
51359;BME280;37448;51.588;7.248;2023-01-29T04:24:47;102326.81;;;-3.93;89.45
51359;BME280;37448;51.588;7.248;2023-01-29T04:26:59;102320.03;;;-3.93;89.29
51359;BME280;37448;51.588;7.248;2023-01-29T04:29:27;102316.69;;;-3.92;89.28
51359;BME280;37448;51.588;7.248;2023-01-29T04:31:46;102319.25;;;-3.92;89.68
51359;BME280;37448;51.588;7.248;2023-01-29T04:38:52;102332.31;;;-3.87;89.45
51359;BME280;37448;51.588;7.248;2023-01-29T04:41:19;102317.97;;;-3.85;89.18
51359;BME280;37448;51.588;7.248;2023-01-29T04:48:21;102310.72;;;-3.79;89.30
51359;BME280;37448;51.588;7.248;2023-01-29T04:50:35;102303.25;;;-3.76;89.86
51359;BME280;37448;51.588;7.248;2023-01-29T04:59:13;102296.97;;;-3.67;90.00
51359;BME280;37448;51.588;7.248;2023-01-29T05:01:17;102297.94;;;-3.65;89.54
51359;BME280;37448;51.588;7.248;2023-01-29T05:03:20;102295.47;;;-3.64;89.98
51359;BME280;37448;51.588;7.248;2023-01-29T05:05:22;102301.47;;;-3.63;89.58
51359;BME280;37448;51.588;7.248;2023-01-29T05:07:23;102282.81;;;-3.62;90.13
51359;BME280;37448;51.588;7.248;2023-01-29T05:09:24;102277.09;;;-3.58;89.89
51359;BME280;37448;51.588;7.248;2023-01-29T05:11:25;102274.56;;;-3.58;90.41
51359;BME280;37448;51.588;7.248;2023-01-29T05:13:27;102276.44;;;-3.55;90.23
51359;BME280;37448;51.588;7.248;2023-01-29T05:15:35;102280.03;;;-3.52;90.27
51359;BME280;37448;51.588;7.248;2023-01-29T05:17:36;102272.28;;;-3.53;90.23
51359;BME280;37448;51.588;7.248;2023-01-29T05:19:37;102280.81;;;-3.53;89.56
51359;BME280;37448;51.588;7.248;2023-01-29T05:21:38;102272.47;;;-3.50;90.22
51359;BME280;37448;51.588;7.248;2023-01-29T05:23:39;102269.03;;;-3.51;89.70
51359;BME280;37448;51.588;7.248;2023-01-29T05:25:52;102258.91;;;-3.49;90.16
51359;BME280;37448;51.588;7.248;2023-01-29T05:27:53;102257.16;;;-3.50;89.36
51359;BME280;37448;51.588;7.248;2023-01-29T05:30:12;102258.81;;;-3.51;89.40
51359;BME280;37448;51.588;7.248;2023-01-29T05:32:14;102264.81;;;-3.50;89.35
51359;BME280;37448;51.588;7.248;2023-01-29T05:34:15;102266.69;;;-3.48;89.23
51359;BME280;37448;51.588;7.248;2023-01-29T05:36:15;102262.56;;;-3.46;89.39
51359;BME280;37448;51.588;7.248;2023-01-29T05:38:18;102262.63;;;-3.44;89.28
51359;BME280;37448;51.588;7.248;2023-01-29T05:40:19;102261.06;;;-3.42;89.69
51359;BME280;37448;51.588;7.248;2023-01-29T05:42:19;102262.94;;;-3.39;89.57
51359;BME280;37448;51.588;7.248;2023-01-29T05:44:20;102260.28;;;-3.41;89.31
51359;BME280;37448;51.588;7.248;2023-01-29T05:46:20;102268.03;;;-3.39;89.35
51359;BME280;37448;51.588;7.248;2023-01-29T05:48:21;102277.47;;;-3.38;89.27
51359;BME280;37448;51.588;7.248;2023-01-29T05:50:22;102277.66;;;-3.35;90.04
51359;BME280;37448;51.588;7.248;2023-01-29T05:52:22;102270.00;;;-3.35;89.33
51359;BME280;37448;51.588;7.248;2023-01-29T05:54:23;102281.13;;;-3.35;89.55
51359;BME280;37448;51.588;7.248;2023-01-29T05:56:23;102271.75;;;-3.34;89.87
51359;BME280;37448;51.588;7.248;2023-01-29T05:58:24;102277.06;;;-3.31;90.00
51359;BME280;37448;51.588;7.248;2023-01-29T06:00:25;102285.69;;;-3.29;89.63
51359;BME280;37448;51.588;7.248;2023-01-29T06:02:28;102283.94;;;-3.30;89.24
51359;BME280;37448;51.588;7.248;2023-01-29T06:04:29;102280.59;;;-3.29;89.30
51359;BME280;37448;51.588;7.248;2023-01-29T06:06:29;102287.47;;;-3.28;89.31
51359;BME280;37448;51.588;7.248;2023-01-29T06:08:30;102287.56;;;-3.26;89.66
51359;BME280;37448;51.588;7.248;2023-01-29T06:10:30;102303.00;;;-3.25;89.75
51359;BME280;37448;51.588;7.248;2023-01-29T06:12:30;102305.66;;;-3.23;89.64
51359;BME280;37448;51.588;7.248;2023-01-29T06:14:31;102306.63;;;-3.21;89.63
51359;BME280;37448;51.588;7.248;2023-01-29T06:16:31;102304.16;;;-3.20;89.82
51359;BME280;37448;51.588;7.248;2023-01-29T06:18:32;102306.81;;;-3.18;89.88
51359;BME280;37448;51.588;7.248;2023-01-29T06:20:32;102317.13;;;-3.17;90.09
51359;BME280;37448;51.588;7.248;2023-01-29T06:22:32;102318.00;;;-3.16;89.80
51359;BME280;37448;51.588;7.248;2023-01-29T06:24:33;102313.00;;;-3.14;90.03
51359;BME280;37448;51.588;7.248;2023-01-29T06:26:33;102314.75;;;-3.13;90.15
51359;BME280;37448;51.588;7.248;2023-01-29T06:28:33;102308.88;;;-3.12;90.03
51359;BME280;37448;51.588;7.248;2023-01-29T06:30:34;102302.16;;;-3.10;90.30
51359;BME280;37448;51.588;7.248;2023-01-29T06:32:34;102294.59;;;-3.09;90.32
51359;BME280;37448;51.588;7.248;2023-01-29T06:34:34;102288.59;;;-3.09;90.12
51359;BME280;37448;51.588;7.248;2023-01-29T06:36:35;102293.88;;;-3.06;90.35
51359;BME280;37448;51.588;7.248;2023-01-29T06:38:35;102285.34;;;-3.07;90.26
51359;BME280;37448;51.588;7.248;2023-01-29T06:40:37;102286.22;;;-3.06;90.10
51359;BME280;37448;51.588;7.248;2023-01-29T06:42:38;102289.50;;;-3.09;89.34
51359;BME280;37448;51.588;7.248;2023-01-29T06:44:38;102294.88;;;-3.04;89.69
51359;BME280;37448;51.588;7.248;2023-01-29T06:46:38;102302.53;;;-3.04;90.13
51359;BME280;37448;51.588;7.248;2023-01-29T06:48:39;102315.44;;;-3.03;90.05
51359;BME280;37448;51.588;7.248;2023-01-29T06:50:39;102306.97;;;-3.01;90.42
51359;BME280;37448;51.588;7.248;2023-01-29T06:52:39;102307.06;;;-3.00;89.90
51359;BME280;37448;51.588;7.248;2023-01-29T06:54:40;102296.75;;;-3.01;89.53
51359;BME280;37448;51.588;7.248;2023-01-29T06:56:40;102289.19;;;-3.00;89.95
51359;BME280;37448;51.588;7.248;2023-01-29T06:58:40;102291.00;;;-2.97;90.52
51359;BME280;37448;51.588;7.248;2023-01-29T07:00:42;102297.03;;;-2.97;90.20
51359;BME280;37448;51.588;7.248;2023-01-29T07:02:42;102297.09;;;-2.95;90.06
51359;BME280;37448;51.588;7.248;2023-01-29T07:04:43;102294.47;;;-2.97;89.80
51359;BME280;37448;51.588;7.248;2023-01-29T07:06:43;102281.69;;;-2.97;89.46
51359;BME280;37448;51.588;7.248;2023-01-29T07:08:44;102282.84;;;-2.92;90.53
51359;BME280;37448;51.588;7.248;2023-01-29T07:10:44;102290.50;;;-2.92;89.89
51359;BME280;37448;51.588;7.248;2023-01-29T07:12:44;102305.06;;;-2.91;90.28
51359;BME280;37448;51.588;7.248;2023-01-29T07:14:45;102314.50;;;-2.90;90.12
51359;BME280;37448;51.588;7.248;2023-01-29T07:16:45;102307.81;;;-2.88;90.33
51359;BME280;37448;51.588;7.248;2023-01-29T07:18:46;102302.69;;;-2.88;90.24
51359;BME280;37448;51.588;7.248;2023-01-29T07:20:46;102296.59;;;-2.90;89.54
51359;BME280;37448;51.588;7.248;2023-01-29T07:22:46;102299.44;;;-2.85;89.88
51359;BME280;37448;51.588;7.248;2023-01-29T07:24:47;102292.75;;;-2.83;89.73
51359;BME280;37448;51.588;7.248;2023-01-29T07:26:47;102289.28;;;-2.83;89.71
51359;BME280;37448;51.588;7.248;2023-01-29T07:28:48;102297.13;;;-2.80;89.59
51359;BME280;37448;51.588;7.248;2023-01-29T07:30:48;102304.91;;;-2.79;90.12
51359;BME280;37448;51.588;7.248;2023-01-29T07:32:48;102300.59;;;-2.80;88.70
51359;BME280;37448;51.588;7.248;2023-01-29T07:34:49;102300.88;;;-2.75;89.03
51359;BME280;37448;51.588;7.248;2023-01-29T07:36:52;102305.19;;;-2.74;89.60
51359;BME280;37448;51.588;7.248;2023-01-29T07:38:53;102297.53;;;-2.74;88.97
51359;BME280;37448;51.588;7.248;2023-01-29T07:40:53;102294.34;;;-2.70;89.35
51359;BME280;37448;51.588;7.248;2023-01-29T07:43:01;102291.00;;;-2.69;88.94
51359;BME280;37448;51.588;7.248;2023-01-29T07:45:02;102289.41;;;-2.67;89.29
51359;BME280;37448;51.588;7.248;2023-01-29T07:47:02;102284.31;;;-2.67;88.54
51359;BME280;37448;51.588;7.248;2023-01-29T07:49:02;102298.06;;;-2.65;88.31
51359;BME280;37448;51.588;7.248;2023-01-29T07:51:03;102288.00;;;-2.62;89.57
51359;BME280;37448;51.588;7.248;2023-01-29T07:53:03;102282.91;;;-2.62;89.11
51359;BME280;37448;51.588;7.248;2023-01-29T07:55:04;102282.09;;;-2.61;88.96
51359;BME280;37448;51.588;7.248;2023-01-29T07:57:05;102287.50;;;-2.56;89.13
51359;BME280;37448;51.588;7.248;2023-01-29T07:59:06;102282.44;;;-2.54;89.31
51359;BME280;37448;51.588;7.248;2023-01-29T08:01:07;102284.94;;;-2.56;87.91
51359;BME280;37448;51.588;7.248;2023-01-29T08:03:12;102280.00;;;-2.53;88.63
51359;BME280;37448;51.588;7.248;2023-01-29T08:05:13;102286.09;;;-2.51;88.83
51359;BME280;37448;51.588;7.248;2023-01-29T08:07:13;102284.44;;;-2.50;88.05
51359;BME280;37448;51.588;7.248;2023-01-29T08:09:14;102276.13;;;-2.46;88.81
51359;BME280;37448;51.588;7.248;2023-01-29T08:11:14;102271.81;;;-2.47;88.69
51359;BME280;37448;51.588;7.248;2023-01-29T08:13:14;102273.63;;;-2.45;88.65
51359;BME280;37448;51.588;7.248;2023-01-29T08:15:15;102271.09;;;-2.45;88.59
51359;BME280;37448;51.588;7.248;2023-01-29T08:17:15;102273.06;;;-2.40;89.15
51359;BME280;37448;51.588;7.248;2023-01-29T08:19:15;102273.91;;;-2.40;88.50
51359;BME280;37448;51.588;7.248;2023-01-29T08:21:16;102275.69;;;-2.39;88.31
51359;BME280;37448;51.588;7.248;2023-01-29T08:23:16;102281.78;;;-2.37;87.96
51359;BME280;37448;51.588;7.248;2023-01-29T08:25:16;102284.50;;;-2.34;88.10
51359;BME280;37448;51.588;7.248;2023-01-29T08:27:17;102276.19;;;-2.29;88.78
51359;BME280;37448;51.588;7.248;2023-01-29T08:29:17;102269.53;;;-2.27;89.22
51359;BME280;37448;51.588;7.248;2023-01-29T08:31:18;102266.97;;;-2.27;88.53
51359;BME280;37448;51.588;7.248;2023-01-29T08:33:20;102263.59;;;-2.26;87.91
51359;BME280;37448;51.588;7.248;2023-01-29T08:35:20;102264.56;;;-2.24;87.77
51359;BME280;37448;51.588;7.248;2023-01-29T08:37:21;102261.22;;;-2.23;88.98
51359;BME280;37448;51.588;7.248;2023-01-29T08:39:21;102252.75;;;-2.22;87.84
51359;BME280;37448;51.588;7.248;2023-01-29T08:41:21;102252.75;;;-2.22;88.35
51359;BME280;37448;51.588;7.248;2023-01-29T08:43:22;102241.72;;;-2.21;88.14
51359;BME280;37448;51.588;7.248;2023-01-29T08:45:22;102234.88;;;-2.21;88.01
51359;BME280;37448;51.588;7.248;2023-01-29T08:47:23;102233.41;;;-2.17;89.38
51359;BME280;37448;51.588;7.248;2023-01-29T08:49:23;102242.84;;;-2.16;88.79
51359;BME280;37448;51.588;7.248;2023-01-29T08:51:24;102236.75;;;-2.18;87.96
51359;BME280;37448;51.588;7.248;2023-01-29T08:53:25;102240.28;;;-2.16;88.27
51359;BME280;37448;51.588;7.248;2023-01-29T08:55:25;102239.66;;;-2.12;88.63
51359;BME280;37448;51.588;7.248;2023-01-29T08:57:26;102241.41;;;-2.11;87.33
51359;BME280;37448;51.588;7.248;2023-01-29T08:59:26;102241.59;;;-2.08;88.31
51359;BME280;37448;51.588;7.248;2023-01-29T09:01:27;102233.09;;;-2.07;87.48
51359;BME280;37448;51.588;7.248;2023-01-29T09:03:27;102229.84;;;-2.04;88.21
51359;BME280;37448;51.588;7.248;2023-01-29T09:05:28;102225.78;;;-2.00;88.82
51359;BME280;37448;51.588;7.248;2023-01-29T09:07:28;102221.63;;;-1.98;88.30
51359;BME280;37448;51.588;7.248;2023-01-29T09:09:29;102217.38;;;-1.98;87.71
51359;BME280;37448;51.588;7.248;2023-01-29T09:11:29;102213.31;;;-1.94;88.09
51359;BME280;37448;51.588;7.248;2023-01-29T09:13:29;102209.97;;;-1.93;87.66
51359;BME280;37448;51.588;7.248;2023-01-29T09:15:30;102204.13;;;-1.91;86.93
51359;BME280;37448;51.588;7.248;2023-01-29T09:17:30;102194.91;;;-1.87;87.23
51359;BME280;37448;51.588;7.248;2023-01-29T09:19:30;102201.81;;;-1.86;86.25
51359;BME280;37448;51.588;7.248;2023-01-29T09:21:31;102196.94;;;-1.81;87.38
51359;BME280;37448;51.588;7.248;2023-01-29T09:23:31;102197.19;;;-1.77;87.11
51359;BME280;37448;51.588;7.248;2023-01-29T09:25:32;102206.81;;;-1.73;87.38
51359;BME280;37448;51.588;7.248;2023-01-29T09:27:33;102199.28;;;-1.69;87.35
51359;BME280;37448;51.588;7.248;2023-01-29T09:29:33;102197.69;;;-1.67;87.58
51359;BME280;37448;51.588;7.248;2023-01-29T09:31:34;102202.00;;;-1.66;86.47
51359;BME280;37448;51.588;7.248;2023-01-29T09:33:34;102204.56;;;-1.66;85.93
51359;BME280;37448;51.588;7.248;2023-01-29T09:35:34;102209.00;;;-1.64;86.45
51359;BME280;37448;51.588;7.248;2023-01-29T09:37:34;102209.16;;;-1.61;87.05
51359;BME280;37448;51.588;7.248;2023-01-29T09:39:35;102210.00;;;-1.60;86.49
51359;BME280;37448;51.588;7.248;2023-01-29T09:41:55;102203.13;;;-1.61;86.06
51359;BME280;37448;51.588;7.248;2023-01-29T09:44:01;102198.00;;;-1.61;86.15
51359;BME280;37448;51.588;7.248;2023-01-29T09:46:06;102192.97;;;-1.60;86.57
51359;BME280;37448;51.588;7.248;2023-01-29T09:48:14;102198.97;;;-1.59;86.92
51359;BME280;37448;51.588;7.248;2023-01-29T09:50:42;102200.81;;;-1.56;86.61
51359;BME280;37448;51.588;7.248;2023-01-29T09:52:52;102200.91;;;-1.55;87.05
51359;BME280;37448;51.588;7.248;2023-01-29T09:55:17;102196.75;;;-1.53;86.85
51359;BME280;37448;51.588;7.248;2023-01-29T09:57:44;102195.84;;;-1.53;86.75
51359;BME280;37448;51.588;7.248;2023-01-29T09:59:46;102196.75;;;-1.53;86.73
51359;BME280;37448;51.588;7.248;2023-01-29T10:06:42;102200.44;;;-1.48;85.68
51359;BME280;37448;51.588;7.248;2023-01-29T10:09:07;102192.91;;;-1.45;86.31
51359;BME280;37448;51.588;7.248;2023-01-29T10:13:59;102195.63;;;-1.41;85.29
51359;BME280;37448;51.588;7.248;2023-01-29T10:20:45;102191.88;;;-1.32;86.13
51359;BME280;37448;51.588;7.248;2023-01-29T10:25:03;102194.84;;;-1.24;85.94
51359;BME280;37448;51.588;7.248;2023-01-29T10:27:15;102204.34;;;-1.21;86.35
51359;BME280;37448;51.588;7.248;2023-01-29T10:29:18;102199.22;;;-1.21;85.75
51359;BME280;37448;51.588;7.248;2023-01-29T10:31:29;102194.19;;;-1.20;85.72
51359;BME280;37448;51.588;7.248;2023-01-29T10:33:39;102194.28;;;-1.18;84.94
51359;BME280;37448;51.588;7.248;2023-01-29T10:35:42;102188.50;;;-1.14;85.39
51359;BME280;37448;51.588;7.248;2023-01-29T10:37:43;102183.44;;;-1.12;84.81
51359;BME280;37448;51.588;7.248;2023-01-29T10:39:44;102174.94;;;-1.11;83.17
51359;BME280;37448;51.588;7.248;2023-01-29T10:42:01;102181.22;;;-1.06;84.62
51359;BME280;37448;51.588;7.248;2023-01-29T10:44:23;102183.19;;;-1.01;85.16
51359;BME280;37448;51.588;7.248;2023-01-29T10:48:47;102163.84;;;-0.94;84.55
51359;BME280;37448;51.588;7.248;2023-01-29T10:51:00;102165.63;;;-0.93;83.72
51359;BME280;37448;51.588;7.248;2023-01-29T10:53:32;102163.16;;;-0.91;83.99
51359;BME280;37448;51.588;7.248;2023-01-29T10:58:12;102157.50;;;-0.84;85.18
51359;BME280;37448;51.588;7.248;2023-01-29T11:00:25;102155.75;;;-0.85;83.83
51359;BME280;37448;51.588;7.248;2023-01-29T11:02:26;102149.91;;;-0.82;85.24
51359;BME280;37448;51.588;7.248;2023-01-29T11:04:27;102145.72;;;-0.80;84.76
51359;BME280;37448;51.588;7.248;2023-01-29T11:06:34;102140.66;;;-0.79;84.42
51359;BME280;37448;51.588;7.248;2023-01-29T11:08:55;102141.59;;;-0.77;85.03
51359;BME280;37448;51.588;7.248;2023-01-29T11:11:01;102144.25;;;-0.75;84.83
51359;BME280;37448;51.588;7.248;2023-01-29T11:13:09;102133.84;;;-0.78;83.30
51359;BME280;37448;51.588;7.248;2023-01-29T11:15:22;102133.19;;;-0.74;83.37
51359;BME280;37448;51.588;7.248;2023-01-29T11:17:25;102125.63;;;-0.71;84.04
51359;BME280;37448;51.588;7.248;2023-01-29T11:19:45;102128.34;;;-0.68;84.37
51359;BME280;37448;51.588;7.248;2023-01-29T11:21:52;102126.69;;;-0.67;83.99
51359;BME280;37448;51.588;7.248;2023-01-29T11:24:07;102117.41;;;-0.64;84.35
51359;BME280;37448;51.588;7.248;2023-01-29T11:26:11;102120.00;;;-0.64;82.68
51359;BME280;37448;51.588;7.248;2023-01-29T11:28:12;102115.91;;;-0.60;83.71
51359;BME280;37448;51.588;7.248;2023-01-29T11:30:27;102113.47;;;-0.57;83.90
51359;BME280;37448;51.588;7.248;2023-01-29T11:32:32;102105.06;;;-0.54;83.90
51359;BME280;37448;51.588;7.248;2023-01-29T11:34:33;102101.69;;;-0.53;83.81
51359;BME280;37448;51.588;7.248;2023-01-29T11:36:36;102094.94;;;-0.51;84.39
51359;BME280;37448;51.588;7.248;2023-01-29T11:38:39;102093.31;;;-0.49;84.52
51359;BME280;37448;51.588;7.248;2023-01-29T11:40:40;102087.38;;;-0.48;83.67
51359;BME280;37448;51.588;7.248;2023-01-29T11:42:40;102083.84;;;-0.50;82.24
51359;BME280;37448;51.588;7.248;2023-01-29T11:44:42;102073.59;;;-0.50;81.81
51359;BME280;37448;51.588;7.248;2023-01-29T11:46:42;102073.72;;;-0.47;82.05
51359;BME280;37448;51.588;7.248;2023-01-29T11:48:47;102074.53;;;-0.48;79.83
51359;BME280;37448;51.588;7.248;2023-01-29T11:50:57;102065.34;;;-0.43;82.47
51359;BME280;37448;51.588;7.248;2023-01-29T11:53:02;102067.25;;;-0.39;83.58